createdAt,value
2022-08-10T00:00:37.265Z,17.56
2022-08-10T00:03:09.989Z,17.54
2022-08-10T00:05:43.338Z,17.47
2022-08-10T00:08:22.672Z,17.43
2022-08-10T00:10:53.412Z,17.43
2022-08-10T00:13:23.389Z,17.45
2022-08-10T00:15:53.358Z,17.40
2022-08-10T00:18:34.886Z,17.34
2022-08-10T00:21:04.722Z,17.31
2022-08-10T00:23:32.929Z,17.27
2022-08-10T00:26:06.751Z,17.27
2022-08-10T00:28:39.016Z,17.23
2022-08-10T00:31:05.659Z,17.17
2022-08-10T00:33:33.344Z,17.13
2022-08-10T00:35:59.845Z,17.07
2022-08-10T00:38:26.272Z,17.06
2022-08-10T00:40:52.727Z,17.03
2022-08-10T00:43:23.801Z,17.00
2022-08-10T00:45:59.346Z,16.99
2022-08-10T00:48:30.027Z,16.97
2022-08-10T00:50:59.496Z,16.96
2022-08-10T00:53:29.377Z,16.91
2022-08-10T00:57:14.444Z,16.89
2022-08-10T00:58:54.709Z,16.88
2022-08-10T01:02:09.591Z,16.79
2022-08-10T01:04:57.459Z,16.74
2022-08-10T01:07:14.566Z,16.69
2022-08-10T01:10:04.561Z,16.67
2022-08-10T01:12:55.109Z,16.67
2022-08-10T01:15:42.034Z,16.64
2022-08-10T01:18:47.208Z,16.64
2022-08-10T01:21:38.094Z,16.59
2022-08-10T01:24:13.224Z,16.53
2022-08-10T01:27:13.963Z,16.52
2022-08-10T01:29:58.629Z,16.49
2022-08-10T01:33:17.417Z,16.43
2022-08-10T01:35:53.127Z,16.41
2022-08-10T01:38:34.556Z,16.36
2022-08-10T01:41:06.297Z,16.31
2022-08-10T01:43:46.269Z,16.28
2022-08-10T01:46:15.461Z,16.22
2022-08-10T01:48:49.829Z,16.18
2022-08-10T01:51:32.630Z,16.14
2022-08-10T01:54:03.750Z,16.12
2022-08-10T01:56:33.338Z,16.07
2022-08-10T01:59:13.926Z,16.04
2022-08-10T02:01:45.370Z,16.04
2022-08-10T02:04:14.118Z,16.00
2022-08-10T02:06:53.245Z,15.98
2022-08-10T02:09:30.656Z,15.93
2022-08-10T02:12:07.002Z,15.90
2022-08-10T02:14:45.003Z,15.83
2022-08-10T02:17:57.900Z,15.82
2022-08-10T02:20:31.631Z,15.79
2022-08-10T02:23:06.178Z,15.78
2022-08-10T02:25:42.123Z,15.73
2022-08-10T02:28:30.422Z,15.67
2022-08-10T02:31:11.930Z,15.65
2022-08-10T02:33:56.392Z,15.65
2022-08-10T02:36:27.737Z,15.62
2022-08-10T02:39:07.361Z,15.59
2022-08-10T02:45:14.849Z,15.59
2022-08-10T02:45:18.931Z,15.55
2022-08-10T02:48:07.059Z,15.54
2022-08-10T02:50:35.699Z,15.46
2022-08-10T02:53:51.761Z,15.42
2022-08-10T02:56:14.808Z,15.40
2022-08-10T02:58:45.837Z,15.38
2022-08-10T03:01:16.593Z,15.41
2022-08-10T03:03:59.197Z,15.35
2022-08-10T03:06:34.209Z,15.35
2022-08-10T03:09:07.032Z,15.32
2022-08-10T03:12:36.381Z,15.27
2022-08-10T03:14:25.791Z,15.25
2022-08-10T03:16:54.526Z,15.25
2022-08-10T03:20:33.308Z,15.24
2022-08-10T03:22:10.330Z,15.20
2022-08-10T03:24:37.092Z,15.20
2022-08-10T03:27:05.017Z,15.23
2022-08-10T03:30:31.688Z,15.24
2022-08-10T03:32:20.577Z,15.25
2022-08-10T03:34:48.200Z,15.24
2022-08-10T03:37:16.857Z,15.25
2022-08-10T03:39:43.414Z,15.21
2022-08-10T03:42:15.253Z,15.14
2022-08-10T03:44:45.229Z,15.14
2022-08-10T03:47:17.407Z,15.15
2022-08-10T03:49:46.546Z,15.09
2022-08-10T03:52:13.889Z,15.02
2022-08-10T03:54:41.233Z,15.01
2022-08-10T03:57:08.076Z,14.98
2022-08-10T03:59:36.202Z,14.97
2022-08-10T04:02:41.563Z,14.93
2022-08-10T04:04:55.826Z,14.92
2022-08-10T04:07:22.703Z,14.91
2022-08-10T04:09:55.266Z,14.86
2022-08-10T04:12:24.846Z,14.84
2022-08-10T04:14:53.266Z,14.82
2022-08-10T04:18:02.968Z,14.79
2022-08-10T04:20:17.648Z,14.74
2022-08-10T04:22:46.888Z,14.71
2022-08-10T04:25:19.349Z,14.74
2022-08-10T04:27:47.309Z,14.78
2022-08-10T04:30:14.313Z,14.80
2022-08-10T04:32:42.153Z,14.80
2022-08-10T04:35:10.714Z,14.79
2022-08-10T04:37:47.207Z,14.78
2022-08-10T04:40:28.423Z,14.76
2022-08-10T04:43:13.676Z,14.78
2022-08-10T04:45:51.453Z,14.83
2022-08-10T04:48:41.201Z,14.91
2022-08-10T04:51:17.367Z,14.94
2022-08-10T04:54:03.131Z,14.96
2022-08-10T04:56:38.391Z,14.95
2022-08-10T04:59:10.092Z,14.96
2022-08-10T05:02:22.066Z,14.95
2022-08-10T05:04:34.048Z,15.00
2022-08-10T05:07:16.579Z,15.05
2022-08-10T05:10:04.247Z,15.07
2022-08-10T05:12:37.823Z,15.12
2022-08-10T05:15:23.736Z,15.15
2022-08-10T05:18:08.510Z,15.16
2022-08-10T05:20:38.527Z,15.20
2022-08-10T05:23:07.441Z,15.15
2022-08-10T05:25:37.536Z,15.21
2022-08-10T05:28:06.718Z,15.27
2022-08-10T05:30:43.532Z,15.31
2022-08-10T05:33:10.070Z,15.35
2022-08-10T05:35:55.516Z,15.41
2022-08-10T05:38:26.870Z,15.46
2022-08-10T05:40:54.233Z,15.50
2022-08-10T05:43:22.046Z,15.58
2022-08-10T05:46:17.841Z,15.62
2022-08-10T05:48:57.921Z,15.69
2022-08-10T05:51:27.813Z,15.74
2022-08-10T05:54:02.863Z,15.80
2022-08-10T05:56:55.827Z,15.84
2022-08-10T06:00:34.603Z,15.91
2022-08-10T06:02:31.057Z,15.96
2022-08-10T06:05:23.955Z,15.96
2022-08-10T06:08:15.900Z,16.00
2022-08-10T06:12:25.591Z,16.03
2022-08-10T06:14:15.849Z,16.08
2022-08-10T06:16:50.676Z,16.17
2022-08-10T06:19:17.331Z,16.21
2022-08-10T06:22:01.036Z,16.27
2022-08-10T06:24:30.619Z,16.32
2022-08-10T06:26:58.474Z,16.38
2022-08-10T06:29:26.345Z,16.42
2022-08-10T06:31:59.437Z,16.49
2022-08-10T06:34:53.814Z,16.56
2022-08-10T06:37:51.670Z,16.59
2022-08-10T06:40:19.788Z,16.64
2022-08-10T06:42:56.075Z,16.70
2022-08-10T06:45:43.764Z,16.76
2022-08-10T06:48:52.441Z,16.85
2022-08-10T06:51:26.072Z,16.92
2022-08-10T06:53:56.324Z,16.97
2022-08-10T06:56:36.087Z,17.04
2022-08-10T06:59:13.446Z,17.13
2022-08-10T07:01:53.176Z,17.20
2022-08-10T07:04:32.515Z,17.27
2022-08-10T07:07:04.033Z,17.34
2022-08-10T07:09:34.876Z,17.40
2022-08-10T07:12:08.421Z,17.49
2022-08-10T07:14:42.349Z,17.55
2022-08-10T07:17:16.763Z,17.62
2022-08-10T07:19:59.321Z,17.70
2022-08-10T07:23:55.334Z,17.76
2022-08-10T07:25:25.229Z,17.86
2022-08-10T07:28:03.118Z,17.93
2022-08-10T07:30:40.688Z,18.00
2022-08-10T07:33:10.594Z,18.09
2022-08-10T07:35:42.259Z,18.17
2022-08-10T07:38:37.032Z,18.28
2022-08-10T07:41:07.669Z,18.37
2022-08-10T07:43:40.800Z,18.48
2022-08-10T07:46:12.211Z,18.56
2022-08-10T07:48:50.844Z,18.67
2022-08-10T07:51:20.244Z,18.78
2022-08-10T07:53:52.717Z,18.86
2022-08-10T07:56:47.842Z,18.95
2022-08-10T07:59:22.870Z,19.05
2022-08-10T08:01:55.720Z,19.11
2022-08-10T08:04:25.256Z,19.18
2022-08-10T08:06:53.008Z,19.26
2022-08-10T08:09:20.685Z,19.33
2022-08-10T08:11:49.478Z,19.42
2022-08-10T08:14:17.097Z,19.52
2022-08-10T08:16:47.373Z,19.59
2022-08-10T08:19:37.302Z,19.69
2022-08-10T08:24:05.775Z,19.80
2022-08-10T08:24:52.400Z,19.90
2022-08-10T08:27:21.316Z,19.99
2022-08-10T08:29:49.786Z,20.08
2022-08-10T08:32:53.327Z,20.18
2022-08-10T08:35:25.991Z,20.31
2022-08-10T08:38:32.639Z,20.43
2022-08-10T08:41:50.412Z,20.54
2022-08-10T08:44:42.032Z,20.67
2022-08-10T08:48:03.679Z,20.76
2022-08-10T08:50:38.782Z,20.86
2022-08-10T08:54:01.756Z,20.98
2022-08-10T08:56:38.358Z,21.11
2022-08-10T08:59:19.952Z,21.22
2022-08-10T09:02:14.361Z,21.34
2022-08-10T09:05:27.544Z,21.44
2022-08-10T09:08:17.394Z,21.57
2022-08-10T09:10:43.785Z,21.71
2022-08-10T09:13:27.004Z,21.81
2022-08-10T09:16:08.672Z,21.90
2022-08-10T09:19:05.329Z,22.03
2022-08-10T09:22:17.265Z,22.18
2022-08-10T09:25:32.809Z,22.30
2022-08-10T09:28:06.816Z,22.39
2022-08-10T09:31:23.416Z,22.47
2022-08-10T09:36:21.929Z,22.58
2022-08-10T09:37:42.613Z,22.73
2022-08-10T09:40:59.813Z,22.87
2022-08-10T09:43:40.260Z,23.00
2022-08-10T09:46:16.416Z,23.05
2022-08-10T09:49:53.267Z,23.14
2022-08-10T09:52:40.792Z,23.26
2022-08-10T09:56:17.359Z,23.39
2022-08-10T09:58:43.128Z,23.53
2022-08-10T10:02:00.481Z,23.59
2022-08-10T10:05:19.584Z,23.66
2022-08-10T10:08:17.672Z,23.79
2022-08-10T10:11:17.500Z,23.92
2022-08-10T10:14:02.856Z,23.96
2022-08-10T10:16:57.038Z,24.05
2022-08-10T10:19:27.324Z,24.10
2022-08-10T10:22:43.229Z,24.17
2022-08-10T10:25:51.478Z,24.30
2022-08-10T10:28:57.561Z,24.38
2022-08-10T10:31:30.368Z,24.47
2022-08-10T10:34:06.634Z,24.54
2022-08-10T10:36:35.089Z,24.69
2022-08-10T10:39:09.484Z,24.79
2022-08-10T10:42:04.278Z,24.87
2022-08-10T10:45:03.093Z,25.00
2022-08-10T10:47:51.365Z,25.05
2022-08-10T10:50:58.790Z,25.20
2022-08-10T10:54:17.019Z,25.24
2022-08-10T10:57:59.592Z,25.27
2022-08-10T11:00:24.109Z,25.33
2022-08-10T11:03:34.291Z,25.41
2022-08-10T11:06:40.265Z,25.48
2022-08-10T11:10:03.924Z,25.52
2022-08-10T11:12:50.988Z,25.54
2022-08-10T11:16:03.833Z,25.62
2022-08-10T11:18:59.028Z,25.73
2022-08-10T11:22:01.634Z,25.75
2022-08-10T11:24:47.490Z,25.77
2022-08-10T11:27:33.436Z,25.77
2022-08-10T11:30:07.305Z,25.88
2022-08-10T11:33:07.358Z,25.90
2022-08-10T11:43:39.444Z,26.10
2022-08-10T11:46:27.622Z,26.19
2022-08-10T11:49:10.906Z,26.19
2022-08-10T11:51:47.910Z,26.24
2022-08-10T11:54:56.458Z,26.28
2022-08-10T11:57:53.482Z,26.34
2022-08-10T12:00:18.296Z,26.39
2022-08-10T12:02:53.440Z,26.43
2022-08-10T12:05:46.765Z,26.47
2022-08-10T12:10:03.079Z,26.57
2022-08-10T12:11:24.089Z,26.65
2022-08-10T12:14:35.385Z,26.67
2022-08-10T12:17:13.627Z,26.68
2022-08-10T12:20:02.422Z,26.73
2022-08-10T12:22:50.261Z,26.78
2022-08-10T12:25:57.660Z,26.85
2022-08-10T12:28:23.081Z,26.86
2022-08-10T12:31:13.485Z,26.92
2022-08-10T12:34:01.430Z,26.94
2022-08-10T12:36:37.939Z,27.00
2022-08-10T12:39:12.995Z,27.08
2022-08-10T12:41:52.916Z,27.18
2022-08-10T12:44:41.307Z,27.19
2022-08-10T12:47:17.044Z,27.19
2022-08-10T12:50:29.414Z,27.19
2022-08-10T12:53:29.996Z,27.27
2022-08-10T12:56:07.029Z,27.37
2022-08-10T12:58:57.852Z,27.41
2022-08-10T13:02:06.358Z,27.47
2022-08-10T13:04:43.388Z,27.49
2022-08-10T13:07:10.503Z,27.55
2022-08-10T13:10:05.568Z,27.58
2022-08-10T13:12:40.509Z,27.61
2022-08-10T13:15:44.530Z,27.60
2022-08-10T13:18:05.558Z,27.62
2022-08-10T13:20:38.424Z,27.68
2022-08-10T13:23:13.077Z,27.74
2022-08-10T13:25:48.160Z,27.78
2022-08-10T13:28:37.359Z,27.83
2022-08-10T13:31:11.675Z,27.92
2022-08-10T13:34:42.898Z,27.94
2022-08-10T13:37:00.856Z,27.97
2022-08-10T13:39:59.149Z,27.97
2022-08-10T13:42:36.892Z,28.01
2022-08-10T13:45:20.870Z,28.04
2022-08-10T13:47:50.996Z,28.00
2022-08-10T13:50:35.681Z,28.03
2022-08-10T13:53:15.954Z,28.09
2022-08-10T13:56:01.917Z,28.08
2022-08-10T13:58:38.720Z,28.07
2022-08-10T14:01:12.249Z,28.03
2022-08-10T14:03:40.768Z,28.01
2022-08-10T14:06:12.365Z,28.05
2022-08-10T14:09:05.772Z,28.07
2022-08-10T14:11:35.958Z,28.09
2022-08-10T14:14:24.796Z,28.10
2022-08-10T14:16:58.590Z,28.10
2022-08-10T14:19:29.445Z,28.10
2022-08-10T14:21:56.292Z,28.08
2022-08-10T14:24:33.188Z,28.06
2022-08-10T14:27:06.972Z,28.04
2022-08-10T14:29:41.528Z,28.06
2022-08-10T14:32:12.998Z,28.04
2022-08-10T14:36:16.190Z,28.02
2022-08-10T14:38:07.800Z,27.99
2022-08-10T14:40:40.676Z,28.02
2022-08-10T14:43:28.250Z,28.01
2022-08-10T14:46:01.697Z,28.01
2022-08-10T14:48:33.268Z,27.96
2022-08-10T14:51:03.009Z,27.92
2022-08-10T14:53:34.341Z,27.95
2022-08-10T14:56:29.156Z,27.94
2022-08-10T14:59:07.039Z,27.96
2022-08-10T15:02:37.821Z,27.95
2022-08-10T15:04:33.052Z,27.93
2022-08-10T15:07:22.114Z,27.92
2022-08-10T15:09:59.780Z,27.87
2022-08-10T15:12:41.490Z,27.85
2022-08-10T15:15:16.324Z,27.81
2022-08-10T15:17:50.743Z,27.79
2022-08-10T15:20:23.459Z,27.78
2022-08-10T15:22:58.707Z,27.78
2022-08-10T15:25:36.604Z,27.76
2022-08-10T15:28:13.277Z,27.76
2022-08-10T15:30:52.359Z,27.70
2022-08-10T15:34:02.696Z,27.69
2022-08-10T15:37:01.945Z,27.60
2022-08-10T15:40:26.128Z,27.54
2022-08-10T15:43:37.040Z,27.47
2022-08-10T15:46:29.621Z,27.46
2022-08-10T15:49:17.886Z,27.44
2022-08-10T15:51:56.021Z,27.40
2022-08-10T15:54:33.351Z,27.36
2022-08-10T15:57:03.873Z,27.34
2022-08-10T15:59:34.172Z,27.31
2022-08-10T16:02:15.709Z,27.32
2022-08-10T16:05:15.568Z,27.34
2022-08-10T16:08:02.815Z,27.27
2022-08-10T16:11:09.519Z,27.21
2022-08-10T16:13:50.133Z,27.19
2022-08-10T16:16:35.248Z,27.18
2022-08-10T16:19:12.412Z,27.21
2022-08-10T16:22:36.264Z,27.17
2022-08-10T16:25:17.689Z,27.08
2022-08-10T16:27:46.350Z,27.02
2022-08-10T16:30:15.410Z,26.97
2022-08-10T16:32:59.011Z,26.93
2022-08-10T16:35:26.139Z,26.92
2022-08-10T16:37:59.708Z,26.87
2022-08-10T16:40:29.335Z,26.82
2022-08-10T16:43:03.335Z,26.80
2022-08-10T16:45:41.236Z,26.81
2022-08-10T16:48:10.901Z,26.78
2022-08-10T16:50:42.035Z,26.74
2022-08-10T16:53:20.572Z,26.76
2022-08-10T16:55:51.050Z,26.75
2022-08-10T16:58:25.330Z,26.74
2022-08-10T17:00:52.753Z,26.71
2022-08-10T17:04:08.456Z,26.70
2022-08-10T17:06:28.598Z,26.62
2022-08-10T17:09:04.613Z,26.58
2022-08-10T17:11:37.509Z,26.51
2022-08-10T17:14:08.386Z,26.43
2022-08-10T17:16:40.454Z,26.40
2022-08-10T17:19:17.154Z,26.37
2022-08-10T17:21:51.925Z,26.33
2022-08-10T17:24:49.909Z,26.32
2022-08-10T17:28:05.030Z,26.29
2022-08-10T17:30:11.015Z,26.23
2022-08-10T17:32:51.339Z,26.20
2022-08-10T17:35:23.834Z,26.17
2022-08-10T17:37:58.084Z,26.19
2022-08-10T17:40:49.681Z,26.21
2022-08-10T17:43:46.584Z,26.21
2022-08-10T17:46:13.199Z,26.19
2022-08-10T17:48:41.781Z,26.17
2022-08-10T17:51:12.080Z,26.16
2022-08-10T17:54:04.344Z,26.15
2022-08-10T17:56:34.364Z,26.13
2022-08-10T17:59:55.572Z,26.07
2022-08-10T18:02:26.273Z,26.02
2022-08-10T18:05:04.105Z,25.96
2022-08-10T18:07:38.565Z,25.87
2022-08-10T18:10:11.245Z,25.80
2022-08-10T18:12:56.754Z,25.75
2022-08-10T18:15:27.309Z,25.73
2022-08-10T18:18:00.693Z,25.71
2022-08-10T18:20:37.563Z,25.62
2022-08-10T18:23:08.170Z,25.58
2022-08-10T18:25:38.489Z,25.50
2022-08-10T18:28:11.051Z,25.43
2022-08-10T18:30:48.088Z,25.37
2022-08-10T18:33:36.765Z,25.31
2022-08-10T18:36:17.809Z,25.29
2022-08-10T18:38:56.527Z,25.22
2022-08-10T18:41:33.477Z,25.16
2022-08-10T18:44:18.924Z,25.04
2022-08-10T18:47:16.283Z,24.95
2022-08-10T18:50:05.446Z,24.92
2022-08-10T18:52:34.707Z,24.88
2022-08-10T18:55:27.008Z,24.80
2022-08-10T18:58:07.686Z,24.58
2022-08-10T19:01:17.665Z,24.41
2022-08-10T19:03:59.141Z,24.29
2022-08-10T19:06:43.580Z,24.18
2022-08-10T19:09:51.937Z,24.06
2022-08-10T19:12:53.053Z,23.90
2022-08-10T19:15:31.598Z,23.72
2022-08-10T19:18:13.690Z,23.59
2022-08-10T19:21:23.097Z,23.49
2022-08-10T19:23:59.306Z,23.39
2022-08-10T19:26:44.245Z,23.29
2022-08-10T19:30:08.004Z,23.21
2022-08-10T19:33:04.031Z,23.09
2022-08-10T19:36:09.018Z,23.00
2022-08-10T19:39:03.307Z,22.94
2022-08-10T19:41:48.192Z,22.87
2022-08-10T19:44:51.269Z,22.78
2022-08-10T19:47:30.446Z,22.69
2022-08-10T19:50:26.326Z,22.61
2022-08-10T19:53:08.647Z,22.53
2022-08-10T19:55:50.195Z,22.45
2022-08-10T19:58:41.567Z,22.39
2022-08-10T20:01:20.144Z,22.35
2022-08-10T20:03:57.575Z,22.28
2022-08-10T20:10:51.493Z,22.20
2022-08-10T20:13:37.357Z,22.14
2022-08-10T20:16:14.209Z,22.07
2022-08-10T20:18:48.844Z,22.01
2022-08-10T20:21:19.421Z,21.96
2022-08-10T20:24:12.163Z,21.88
2022-08-10T20:26:53.304Z,21.85
2022-08-10T20:29:57.306Z,21.79
2022-08-10T20:32:24.723Z,21.73
2022-08-10T20:34:57.009Z,21.65
2022-08-10T20:38:03.092Z,21.59
2022-08-10T20:40:46.153Z,21.53
2022-08-10T20:43:34.259Z,21.50
2022-08-10T20:46:09.485Z,21.46
2022-08-10T20:49:13.993Z,21.42
2022-08-10T20:52:09.830Z,21.38
2022-08-10T20:54:45.441Z,21.32
2022-08-10T20:57:56.754Z,21.27
2022-08-10T21:01:01.976Z,21.20
2022-08-10T21:03:53.873Z,21.15
2022-08-10T21:10:42.496Z,21.01
2022-08-10T21:13:35.039Z,20.94
2022-08-10T21:16:20.522Z,20.88
2022-08-10T21:19:13.619Z,20.85
2022-08-10T21:22:12.264Z,20.81
2022-08-10T21:25:00.433Z,20.77
2022-08-10T21:27:55.333Z,20.72
2022-08-10T21:31:00.364Z,20.69
2022-08-10T21:34:17.899Z,20.64
2022-08-10T21:37:21.696Z,20.60
2022-08-10T21:39:52.545Z,20.57
2022-08-10T21:42:51.171Z,20.49
2022-08-10T21:45:59.132Z,20.43
2022-08-10T21:48:57.563Z,20.39
2022-08-10T21:52:10.243Z,20.36
2022-08-10T21:55:09.080Z,20.33
2022-08-10T21:58:23.593Z,20.30
2022-08-10T22:01:38.974Z,20.26
2022-08-10T22:04:25.887Z,20.21
2022-08-10T22:07:12.069Z,20.19
2022-08-10T22:10:03.927Z,20.17
2022-08-10T22:12:56.653Z,20.14
2022-08-10T22:19:01.802Z,20.15
2022-08-10T22:22:29.432Z,20.13
2022-08-10T22:29:14.607Z,20.03
2022-08-10T22:31:27.655Z,20.11
2022-08-10T22:32:25.361Z,20.00
2022-08-10T22:35:47.908Z,19.99
2022-08-10T22:42:58.837Z,19.91
2022-08-10T22:46:20.044Z,19.89
2022-08-10T22:49:00.377Z,19.85
2022-08-10T22:51:39.300Z,19.80
2022-08-10T22:58:23.792Z,19.72
2022-08-10T23:01:03.619Z,19.71
2022-08-10T23:03:37.160Z,19.68
2022-08-10T23:06:16.915Z,19.70
2022-08-10T23:08:56.969Z,19.67
2022-08-10T23:11:39.656Z,19.65
2022-08-10T23:14:09.602Z,19.62
2022-08-10T23:17:01.706Z,19.58
2022-08-10T23:20:08.323Z,19.56
2022-08-10T23:22:44.557Z,19.55
2022-08-10T23:25:16.218Z,19.56
2022-08-10T23:27:49.929Z,19.56
2022-08-10T23:30:33.281Z,19.55
2022-08-10T23:33:37.831Z,19.50
2022-08-10T23:36:33.385Z,19.47
2022-08-10T23:39:25.892Z,19.44
2022-08-10T23:42:07.905Z,19.38
2022-08-10T23:44:53.107Z,19.35
2022-08-10T23:47:21.848Z,19.32
2022-08-10T23:49:55.046Z,19.29
2022-08-10T23:52:34.279Z,19.26
2022-08-10T23:55:23.426Z,19.21
2022-08-10T23:58:09.605Z,19.17
